sensor_id;sensor_type;location;lat;lon;timestamp;temperature;humidity
13496;DHT22;6820;49.374;8.452;2023-07-31T00:01:24;20.78;99.99
13496;DHT22;6820;49.374;8.452;2023-07-31T00:05:26;20.78;99.99
13496;DHT22;6820;49.374;8.452;2023-07-31T00:09:27;20.76;99.99
13496;DHT22;6820;49.374;8.452;2023-07-31T00:13:29;20.76;99.99
13496;DHT22;6820;49.374;8.452;2023-07-31T00:17:31;20.71;99.99
13496;DHT22;6820;49.374;8.452;2023-07-31T00:21:32;20.71;99.99
13496;DHT22;6820;49.374;8.452;2023-07-31T00:25:34;20.68;99.99
13496;DHT22;6820;49.374;8.452;2023-07-31T00:29:35;20.68;99.99
13496;DHT22;6820;49.374;8.452;2023-07-31T00:33:38;20.63;99.99
13496;DHT22;6820;49.374;8.452;2023-07-31T00:37:40;20.58;99.99
13496;DHT22;6820;49.374;8.452;2023-07-31T00:41:41;20.51;99.99
13496;DHT22;6820;49.374;8.452;2023-07-31T00:45:43;20.46;99.99
13496;DHT22;6820;49.374;8.452;2023-07-31T00:49:45;20.37;99.99
13496;DHT22;6820;49.374;8.452;2023-07-31T00:53:47;20.34;99.99
13496;DHT22;6820;49.374;8.452;2023-07-31T00:57:49;20.27;99.99
13496;DHT22;6820;49.374;8.452;2023-07-31T01:01:52;20.20;99.99
13496;DHT22;6820;49.374;8.452;2023-07-31T01:06:05;20.17;99.99
13496;DHT22;6820;49.374;8.452;2023-07-31T01:14:20;20.15;99.99
13496;DHT22;6820;49.374;8.452;2023-07-31T01:18:22;20.12;99.99
13496;DHT22;6820;49.374;8.452;2023-07-31T01:27:05;20.10;99.99
13496;DHT22;6820;49.374;8.452;2023-07-31T01:31:11;20.08;99.99
13496;DHT22;6820;49.374;8.452;2023-07-31T01:35:16;20.08;99.99
13496;DHT22;6820;49.374;8.452;2023-07-31T01:39:19;20.07;99.99
13496;DHT22;6820;49.374;8.452;2023-07-31T01:43:22;20.05;99.99
13496;DHT22;6820;49.374;8.452;2023-07-31T01:47:24;20.01;99.99
13496;DHT22;6820;49.374;8.452;2023-07-31T01:51:26;20.00;99.99
13496;DHT22;6820;49.374;8.452;2023-07-31T01:55:27;20.01;99.99
13496;DHT22;6820;49.374;8.452;2023-07-31T01:59:29;20.02;99.99
13496;DHT22;6820;49.374;8.452;2023-07-31T02:03:31;19.98;99.99
13496;DHT22;6820;49.374;8.452;2023-07-31T02:07:32;19.95;99.99
13496;DHT22;6820;49.374;8.452;2023-07-31T02:11:34;19.97;99.99
13496;DHT22;6820;49.374;8.452;2023-07-31T02:15:36;19.94;99.99
13496;DHT22;6820;49.374;8.452;2023-07-31T02:19:38;19.87;99.99
13496;DHT22;6820;49.374;8.452;2023-07-31T02:23:39;19.83;99.99
13496;DHT22;6820;49.374;8.452;2023-07-31T02:27:41;19.80;99.99
13496;DHT22;6820;49.374;8.452;2023-07-31T02:31:43;19.76;99.99
13496;DHT22;6820;49.374;8.452;2023-07-31T02:35:44;19.70;99.99
13496;DHT22;6820;49.374;8.452;2023-07-31T02:39:46;19.70;99.99
13496;DHT22;6820;49.374;8.452;2023-07-31T02:43:48;19.71;99.99
13496;DHT22;6820;49.374;8.452;2023-07-31T02:47:50;19.68;99.99
13496;DHT22;6820;49.374;8.452;2023-07-31T02:51:52;19.65;99.99
13496;DHT22;6820;49.374;8.452;2023-07-31T02:55:53;19.62;99.99
13496;DHT22;6820;49.374;8.452;2023-07-31T02:59:55;19.61;99.99
13496;DHT22;6820;49.374;8.452;2023-07-31T03:03:57;19.58;99.99
13496;DHT22;6820;49.374;8.452;2023-07-31T03:07:59;19.53;99.99
13496;DHT22;6820;49.374;8.452;2023-07-31T03:12:01;19.49;99.99
13496;DHT22;6820;49.374;8.452;2023-07-31T03:16:02;19.50;99.99
13496;DHT22;6820;49.374;8.452;2023-07-31T03:20:04;19.43;99.99
13496;DHT22;6820;49.374;8.452;2023-07-31T03:24:06;19.42;99.99
13496;DHT22;6820;49.374;8.452;2023-07-31T03:28:08;19.40;99.99
13496;DHT22;6820;49.374;8.452;2023-07-31T03:32:10;19.39;99.99
13496;DHT22;6820;49.374;8.452;2023-07-31T03:36:12;19.39;99.99
13496;DHT22;6820;49.374;8.452;2023-07-31T03:40:13;19.35;99.99
13496;DHT22;6820;49.374;8.452;2023-07-31T03:44:16;19.38;99.99
13496;DHT22;6820;49.374;8.452;2023-07-31T03:48:18;19.32;99.99
13496;DHT22;6820;49.374;8.452;2023-07-31T03:52:20;19.30;99.99
13496;DHT22;6820;49.374;8.452;2023-07-31T03:56:21;19.28;99.99
13496;DHT22;6820;49.374;8.452;2023-07-31T04:00:23;19.31;99.99
13496;DHT22;6820;49.374;8.452;2023-07-31T04:04:28;19.31;99.99
13496;DHT22;6820;49.374;8.452;2023-07-31T04:08:29;19.34;99.99
13496;DHT22;6820;49.374;8.452;2023-07-31T04:12:31;19.35;99.99
13496;DHT22;6820;49.374;8.452;2023-07-31T04:16:33;19.35;99.99
13496;DHT22;6820;49.374;8.452;2023-07-31T04:20:34;19.30;99.99
13496;DHT22;6820;49.374;8.452;2023-07-31T04:24:36;19.32;99.99
13496;DHT22;6820;49.374;8.452;2023-07-31T04:28:38;19.35;99.99
13496;DHT22;6820;49.374;8.452;2023-07-31T04:32:39;19.35;99.99
13496;DHT22;6820;49.374;8.452;2023-07-31T04:36:41;19.35;99.99
13496;DHT22;6820;49.374;8.452;2023-07-31T04:40:43;19.39;99.99
13496;DHT22;6820;49.374;8.452;2023-07-31T04:44:44;19.40;99.99
13496;DHT22;6820;49.374;8.452;2023-07-31T04:48:46;19.42;99.99
13496;DHT22;6820;49.374;8.452;2023-07-31T04:52:47;19.45;99.99
13496;DHT22;6820;49.374;8.452;2023-07-31T04:56:49;19.49;99.99
13496;DHT22;6820;49.374;8.452;2023-07-31T05:00:51;19.55;99.99
13496;DHT22;6820;49.374;8.452;2023-07-31T05:04:52;19.53;99.99
13496;DHT22;6820;49.374;8.452;2023-07-31T05:08:54;19.61;99.99
13496;DHT22;6820;49.374;8.452;2023-07-31T05:12:56;19.65;99.99
13496;DHT22;6820;49.374;8.452;2023-07-31T05:16:57;19.67;99.99
13496;DHT22;6820;49.374;8.452;2023-07-31T05:20:59;19.68;99.99
13496;DHT22;6820;49.374;8.452;2023-07-31T05:25:01;19.70;99.99
13496;DHT22;6820;49.374;8.452;2023-07-31T05:29:03;19.78;99.99
13496;DHT22;6820;49.374;8.452;2023-07-31T05:33:04;19.79;99.99
13496;DHT22;6820;49.374;8.452;2023-07-31T05:37:06;19.87;99.99
13496;DHT22;6820;49.374;8.452;2023-07-31T05:41:08;19.97;99.99
13496;DHT22;6820;49.374;8.452;2023-07-31T05:45:09;20.08;99.99
13496;DHT22;6820;49.374;8.452;2023-07-31T05:49:11;20.16;99.99
13496;DHT22;6820;49.374;8.452;2023-07-31T05:53:13;20.23;99.99
13496;DHT22;6820;49.374;8.452;2023-07-31T05:57:14;20.30;99.99
13496;DHT22;6820;49.374;8.452;2023-07-31T06:01:16;20.33;99.99
13496;DHT22;6820;49.374;8.452;2023-07-31T06:05:18;20.35;99.99
13496;DHT22;6820;49.374;8.452;2023-07-31T06:09:20;20.37;99.99
13496;DHT22;6820;49.374;8.452;2023-07-31T06:13:22;20.44;99.99
13496;DHT22;6820;49.374;8.452;2023-07-31T06:17:23;20.42;99.99
13496;DHT22;6820;49.374;8.452;2023-07-31T06:21:25;20.50;99.99
13496;DHT22;6820;49.374;8.452;2023-07-31T06:25:27;20.53;99.99
13496;DHT22;6820;49.374;8.452;2023-07-31T06:29:29;20.58;99.99
13496;DHT22;6820;49.374;8.452;2023-07-31T06:33:31;20.61;99.99
13496;DHT22;6820;49.374;8.452;2023-07-31T06:37:32;20.58;99.99
13496;DHT22;6820;49.374;8.452;2023-07-31T06:41:38;20.68;99.99
13496;DHT22;6820;49.374;8.452;2023-07-31T06:45:44;20.76;99.99
13496;DHT22;6820;49.374;8.452;2023-07-31T06:49:47;20.76;99.99
13496;DHT22;6820;49.374;8.452;2023-07-31T06:53:48;20.75;99.99
13496;DHT22;6820;49.374;8.452;2023-07-31T06:57:51;20.78;99.99
13496;DHT22;6820;49.374;8.452;2023-07-31T07:01:54;20.82;99.99
13496;DHT22;6820;49.374;8.452;2023-07-31T07:05:56;20.90;99.99
13496;DHT22;6820;49.374;8.452;2023-07-31T07:09:58;20.76;99.99
13496;DHT22;6820;49.374;8.452;2023-07-31T07:14:01;20.73;99.99
13496;DHT22;6820;49.374;8.452;2023-07-31T07:18:02;20.71;99.99
13496;DHT22;6820;49.374;8.452;2023-07-31T07:22:04;20.72;99.99
13496;DHT22;6820;49.374;8.452;2023-07-31T07:26:07;20.82;99.99
13496;DHT22;6820;49.374;8.452;2023-07-31T07:30:08;21.01;99.99
13496;DHT22;6820;49.374;8.452;2023-07-31T07:34:10;21.27;99.99
13496;DHT22;6820;49.374;8.452;2023-07-31T07:38:13;21.56;99.99
13496;DHT22;6820;49.374;8.452;2023-07-31T07:42:16;21.81;99.99
13496;DHT22;6820;49.374;8.452;2023-07-31T07:46:18;21.91;99.99
13496;DHT22;6820;49.374;8.452;2023-07-31T07:50:20;22.06;99.99
13496;DHT22;6820;49.374;8.452;2023-07-31T07:54:21;22.19;99.99
13496;DHT22;6820;49.374;8.452;2023-07-31T07:58:23;22.12;99.99
13496;DHT22;6820;49.374;8.452;2023-07-31T08:02:25;22.26;99.99
13496;DHT22;6820;49.374;8.452;2023-07-31T08:06:26;22.42;99.99
13496;DHT22;6820;49.374;8.452;2023-07-31T08:10:28;22.57;99.99
13496;DHT22;6820;49.374;8.452;2023-07-31T08:14:30;22.57;99.99
13496;DHT22;6820;49.374;8.452;2023-07-31T08:18:33;22.72;99.99
13496;DHT22;6820;49.374;8.452;2023-07-31T08:22:35;22.72;99.99
13496;DHT22;6820;49.374;8.452;2023-07-31T08:26:37;22.76;99.99
13496;DHT22;6820;49.374;8.452;2023-07-31T08:30:39;22.72;99.99
13496;DHT22;6820;49.374;8.452;2023-07-31T08:34:41;22.64;99.99
13496;DHT22;6820;49.374;8.452;2023-07-31T08:38:44;22.70;99.99
13496;DHT22;6820;49.374;8.452;2023-07-31T08:42:47;22.64;99.99
13496;DHT22;6820;49.374;8.452;2023-07-31T08:46:50;22.78;99.99
13496;DHT22;6820;49.374;8.452;2023-07-31T08:50:52;22.94;99.99
13496;DHT22;6820;49.374;8.452;2023-07-31T08:54:54;22.99;99.99
13496;DHT22;6820;49.374;8.452;2023-07-31T08:58:56;22.85;99.99
13496;DHT22;6820;49.374;8.452;2023-07-31T09:02:59;22.89;99.99
13496;DHT22;6820;49.374;8.452;2023-07-31T09:07:04;22.97;99.99
13496;DHT22;6820;49.374;8.452;2023-07-31T09:11:07;22.91;99.99
13496;DHT22;6820;49.374;8.452;2023-07-31T09:15:09;22.91;99.99
13496;DHT22;6820;49.374;8.452;2023-07-31T09:19:37;22.99;99.99
13496;DHT22;6820;49.374;8.452;2023-07-31T09:23:46;23.03;99.99
13496;DHT22;6820;49.374;8.452;2023-07-31T09:31:59;23.19;99.99
13496;DHT22;6820;49.374;8.452;2023-07-31T09:36:01;23.18;99.99
13496;DHT22;6820;49.374;8.452;2023-07-31T09:40:06;23.44;99.99
13496;DHT22;6820;49.374;8.452;2023-07-31T09:44:08;23.60;99.99
13496;DHT22;6820;49.374;8.452;2023-07-31T09:48:13;23.74;99.99
13496;DHT22;6820;49.374;8.452;2023-07-31T09:52:19;24.00;99.99
13496;DHT22;6820;49.374;8.452;2023-07-31T09:56:20;24.33;99.99
13496;DHT22;6820;49.374;8.452;2023-07-31T10:00:24;24.59;99.99
13496;DHT22;6820;49.374;8.452;2023-07-31T10:04:28;24.59;99.99
13496;DHT22;6820;49.374;8.452;2023-07-31T10:08:32;24.45;99.99
13496;DHT22;6820;49.374;8.452;2023-07-31T10:12:37;24.48;99.99
13496;DHT22;6820;49.374;8.452;2023-07-31T10:16:39;24.66;99.99
13496;DHT22;6820;49.374;8.452;2023-07-31T10:20:42;24.92;99.99
13496;DHT22;6820;49.374;8.452;2023-07-31T10:24:45;24.89;99.99
13496;DHT22;6820;49.374;8.452;2023-07-31T10:28:47;24.99;99.99
13496;DHT22;6820;49.374;8.452;2023-07-31T10:32:50;25.04;99.99
13496;DHT22;6820;49.374;8.452;2023-07-31T10:41:27;25.64;99.99
13496;DHT22;6820;49.374;8.452;2023-07-31T10:45:35;25.67;99.99
13496;DHT22;6820;49.374;8.452;2023-07-31T10:49:38;25.67;99.99
13496;DHT22;6820;49.374;8.452;2023-07-31T10:53:40;25.42;99.99
13496;DHT22;6820;49.374;8.452;2023-07-31T10:57:44;25.09;99.99
13496;DHT22;6820;49.374;8.452;2023-07-31T11:01:52;24.84;99.99
13496;DHT22;6820;49.374;8.452;2023-07-31T11:09:59;24.97;99.99
13496;DHT22;6820;49.374;8.452;2023-07-31T11:14:01;25.17;99.99
13496;DHT22;6820;49.374;8.452;2023-07-31T11:18:03;25.11;99.99
13496;DHT22;6820;49.374;8.452;2023-07-31T11:22:06;25.14;99.99
13496;DHT22;6820;49.374;8.452;2023-07-31T11:26:08;25.11;99.99
13496;DHT22;6820;49.374;8.452;2023-07-31T11:30:10;25.07;99.99
13496;DHT22;6820;49.374;8.452;2023-07-31T11:34:12;25.14;99.99
13496;DHT22;6820;49.374;8.452;2023-07-31T11:42:25;25.36;99.99
13496;DHT22;6820;49.374;8.452;2023-07-31T11:46:27;25.45;99.99
13496;DHT22;6820;49.374;8.452;2023-07-31T11:50:33;25.44;99.99
13496;DHT22;6820;49.374;8.452;2023-07-31T11:54:36;25.54;99.99
13496;DHT22;6820;49.374;8.452;2023-07-31T11:58:38;25.46;99.99
13496;DHT22;6820;49.374;8.452;2023-07-31T12:02:42;25.45;99.99
13496;DHT22;6820;49.374;8.452;2023-07-31T12:06:44;25.36;99.99
13496;DHT22;6820;49.374;8.452;2023-07-31T12:10:46;25.35;99.99
13496;DHT22;6820;49.374;8.452;2023-07-31T12:14:48;25.36;99.99
13496;DHT22;6820;49.374;8.452;2023-07-31T12:18:52;25.46;99.99
13496;DHT22;6820;49.374;8.452;2023-07-31T12:22:55;25.54;99.99
13496;DHT22;6820;49.374;8.452;2023-07-31T12:26:58;25.76;99.99
13496;DHT22;6820;49.374;8.452;2023-07-31T12:31:00;25.78;99.99
13496;DHT22;6820;49.374;8.452;2023-07-31T12:35:02;26.00;99.99
13496;DHT22;6820;49.374;8.452;2023-07-31T12:39:07;26.13;99.99
13496;DHT22;6820;49.374;8.452;2023-07-31T12:43:09;25.75;99.99
13496;DHT22;6820;49.374;8.452;2023-07-31T12:47:11;25.51;99.99
13496;DHT22;6820;49.374;8.452;2023-07-31T12:51:12;25.23;99.99
13496;DHT22;6820;49.374;8.452;2023-07-31T12:55:14;25.38;99.99
13496;DHT22;6820;49.374;8.452;2023-07-31T12:59:16;25.54;99.99
13496;DHT22;6820;49.374;8.452;2023-07-31T13:03:17;25.82;99.99
13496;DHT22;6820;49.374;8.452;2023-07-31T13:07:19;26.00;99.99
13496;DHT22;6820;49.374;8.452;2023-07-31T13:11:21;25.85;99.99
13496;DHT22;6820;49.374;8.452;2023-07-31T13:15:23;25.79;99.99
13496;DHT22;6820;49.374;8.452;2023-07-31T13:19:25;25.75;99.99
13496;DHT22;6820;49.374;8.452;2023-07-31T13:23:26;25.53;99.99
13496;DHT22;6820;49.374;8.452;2023-07-31T13:27:28;25.39;99.99
13496;DHT22;6820;49.374;8.452;2023-07-31T13:31:30;25.29;99.99
13496;DHT22;6820;49.374;8.452;2023-07-31T13:35:31;25.19;99.99
13496;DHT22;6820;49.374;8.452;2023-07-31T13:39:33;25.31;99.99
13496;DHT22;6820;49.374;8.452;2023-07-31T13:43:35;25.41;99.99
13496;DHT22;6820;49.374;8.452;2023-07-31T13:47:37;25.53;99.99
13496;DHT22;6820;49.374;8.452;2023-07-31T13:51:39;25.36;99.99
13496;DHT22;6820;49.374;8.452;2023-07-31T13:55:41;25.17;99.99
13496;DHT22;6820;49.374;8.452;2023-07-31T13:59:46;24.98;99.99
13496;DHT22;6820;49.374;8.452;2023-07-31T14:03:48;24.84;99.99
13496;DHT22;6820;49.374;8.452;2023-07-31T14:07:49;24.67;99.99
13496;DHT22;6820;49.374;8.452;2023-07-31T14:11:51;24.53;99.99
13496;DHT22;6820;49.374;8.452;2023-07-31T14:15:53;24.42;99.99
13496;DHT22;6820;49.374;8.452;2023-07-31T14:19:54;24.26;99.99
13496;DHT22;6820;49.374;8.452;2023-07-31T14:23:56;24.24;99.99
13496;DHT22;6820;49.374;8.452;2023-07-31T14:27:58;24.26;99.99
13496;DHT22;6820;49.374;8.452;2023-07-31T14:31:59;24.30;99.99
13496;DHT22;6820;49.374;8.452;2023-07-31T14:36:02;24.26;99.99
13496;DHT22;6820;49.374;8.452;2023-07-31T14:40:04;24.36;99.99
13496;DHT22;6820;49.374;8.452;2023-07-31T14:44:12;24.55;99.99
13496;DHT22;6820;49.374;8.452;2023-07-31T14:48:14;24.82;99.99
13496;DHT22;6820;49.374;8.452;2023-07-31T14:52:15;25.19;99.99
13496;DHT22;6820;49.374;8.452;2023-07-31T14:56:17;25.41;99.99
13496;DHT22;6820;49.374;8.452;2023-07-31T15:00:18;25.59;99.99
13496;DHT22;6820;49.374;8.452;2023-07-31T15:04:21;25.69;99.99
13496;DHT22;6820;49.374;8.452;2023-07-31T15:08:23;25.81;99.99
13496;DHT22;6820;49.374;8.452;2023-07-31T15:12:25;25.94;99.99
13496;DHT22;6820;49.374;8.452;2023-07-31T15:16:28;25.83;99.99
13496;DHT22;6820;49.374;8.452;2023-07-31T15:20:31;25.72;99.99
13496;DHT22;6820;49.374;8.452;2023-07-31T15:24:34;25.66;99.99
13496;DHT22;6820;49.374;8.452;2023-07-31T15:28:35;25.51;99.99
13496;DHT22;6820;49.374;8.452;2023-07-31T15:32:38;25.46;99.99
13496;DHT22;6820;49.374;8.452;2023-07-31T15:36:40;25.36;99.99
13496;DHT22;6820;49.374;8.452;2023-07-31T15:40:42;25.24;99.99
13496;DHT22;6820;49.374;8.452;2023-07-31T15:44:44;25.19;99.99
13496;DHT22;6820;49.374;8.452;2023-07-31T15:48:46;25.08;99.99
13496;DHT22;6820;49.374;8.452;2023-07-31T15:52:47;24.98;99.99
13496;DHT22;6820;49.374;8.452;2023-07-31T15:56:49;24.90;99.99
13496;DHT22;6820;49.374;8.452;2023-07-31T16:00:51;24.90;99.99
13496;DHT22;6820;49.374;8.452;2023-07-31T16:04:52;24.84;99.99
13496;DHT22;6820;49.374;8.452;2023-07-31T16:08:54;24.75;99.99
13496;DHT22;6820;49.374;8.452;2023-07-31T16:12:56;24.67;99.99
13496;DHT22;6820;49.374;8.452;2023-07-31T16:16:58;24.55;99.99
13496;DHT22;6820;49.374;8.452;2023-07-31T16:21:00;24.52;99.99
13496;DHT22;6820;49.374;8.452;2023-07-31T16:25:02;24.42;99.99
13496;DHT22;6820;49.374;8.452;2023-07-31T16:29:04;24.37;99.99
13496;DHT22;6820;49.374;8.452;2023-07-31T16:33:06;24.33;99.99
13496;DHT22;6820;49.374;8.452;2023-07-31T16:37:08;24.19;99.99
13496;DHT22;6820;49.374;8.452;2023-07-31T16:41:10;24.19;99.99
13496;DHT22;6820;49.374;8.452;2023-07-31T16:45:12;24.12;99.99
13496;DHT22;6820;49.374;8.452;2023-07-31T16:52:16;24.02;99.99
13496;DHT22;6820;49.374;8.452;2023-07-31T16:56:18;23.92;99.99
13496;DHT22;6820;49.374;8.452;2023-07-31T17:00:20;23.84;99.99
13496;DHT22;6820;49.374;8.452;2023-07-31T17:04:21;23.77;99.99
13496;DHT22;6820;49.374;8.452;2023-07-31T17:08:24;23.68;99.99
13496;DHT22;6820;49.374;8.452;2023-07-31T17:12:25;23.54;99.99
13496;DHT22;6820;49.374;8.452;2023-07-31T17:16:27;23.39;99.99
13496;DHT22;6820;49.374;8.452;2023-07-31T17:20:30;23.19;99.99
13496;DHT22;6820;49.374;8.452;2023-07-31T17:24:33;23.12;99.99
13496;DHT22;6820;49.374;8.452;2023-07-31T17:28:35;23.01;99.99
13496;DHT22;6820;49.374;8.452;2023-07-31T17:32:36;22.94;99.99
13496;DHT22;6820;49.374;8.452;2023-07-31T17:36:38;22.84;99.99
13496;DHT22;6820;49.374;8.452;2023-07-31T17:40:40;22.74;99.99
13496;DHT22;6820;49.374;8.452;2023-07-31T17:44:42;22.59;99.99
13496;DHT22;6820;49.374;8.452;2023-07-31T17:48:43;22.57;99.99
13496;DHT22;6820;49.374;8.452;2023-07-31T17:52:45;22.48;99.99
13496;DHT22;6820;49.374;8.452;2023-07-31T17:56:47;22.44;99.99
13496;DHT22;6820;49.374;8.452;2023-07-31T18:00:48;22.38;99.99
13496;DHT22;6820;49.374;8.452;2023-07-31T18:04:52;22.31;99.99
13496;DHT22;6820;49.374;8.452;2023-07-31T18:08:54;22.30;99.99
13496;DHT22;6820;49.374;8.452;2023-07-31T18:12:55;22.26;99.99
13496;DHT22;6820;49.374;8.452;2023-07-31T18:16:57;22.21;99.99
13496;DHT22;6820;49.374;8.452;2023-07-31T18:20:59;22.12;99.99
13496;DHT22;6820;49.374;8.452;2023-07-31T18:25:01;22.06;99.99
13496;DHT22;6820;49.374;8.452;2023-07-31T18:29:03;22.06;99.99
13496;DHT22;6820;49.374;8.452;2023-07-31T18:33:04;22.01;99.99
13496;DHT22;6820;49.374;8.452;2023-07-31T18:37:06;21.96;99.99
13496;DHT22;6820;49.374;8.452;2023-07-31T18:41:08;21.96;99.99
13496;DHT22;6820;49.374;8.452;2023-07-31T18:45:09;21.89;99.99
13496;DHT22;6820;49.374;8.452;2023-07-31T18:49:11;21.81;99.99
13496;DHT22;6820;49.374;8.452;2023-07-31T18:53:13;21.77;99.99
13496;DHT22;6820;49.374;8.452;2023-07-31T18:57:14;21.75;99.99
13496;DHT22;6820;49.374;8.452;2023-07-31T19:01:16;21.75;99.99
13496;DHT22;6820;49.374;8.452;2023-07-31T19:05:18;21.74;99.99
13496;DHT22;6820;49.374;8.452;2023-07-31T19:09:28;21.71;99.99
13496;DHT22;6820;49.374;8.452;2023-07-31T19:13:33;21.68;99.99
13496;DHT22;6820;49.374;8.452;2023-07-31T19:17:35;21.68;99.99
13496;DHT22;6820;49.374;8.452;2023-07-31T19:21:39;21.63;99.99
13496;DHT22;6820;49.374;8.452;2023-07-31T19:25:41;21.61;99.99
13496;DHT22;6820;49.374;8.452;2023-07-31T19:29:43;21.58;99.99
13496;DHT22;6820;49.374;8.452;2023-07-31T19:33:45;21.58;99.99
13496;DHT22;6820;49.374;8.452;2023-07-31T19:37:47;21.56;99.99
13496;DHT22;6820;49.374;8.452;2023-07-31T19:41:48;21.51;99.99
13496;DHT22;6820;49.374;8.452;2023-07-31T19:45:50;21.45;99.99
13496;DHT22;6820;49.374;8.452;2023-07-31T19:49:51;21.40;99.99
13496;DHT22;6820;49.374;8.452;2023-07-31T19:53:53;21.24;99.99
13496;DHT22;6820;49.374;8.452;2023-07-31T19:57:55;21.34;99.99
13496;DHT22;6820;49.374;8.452;2023-07-31T20:01:57;21.31;99.99
13496;DHT22;6820;49.374;8.452;2023-07-31T20:05:58;21.26;99.99
13496;DHT22;6820;49.374;8.452;2023-07-31T20:10:00;21.16;99.99
13496;DHT22;6820;49.374;8.452;2023-07-31T20:14:05;21.21;99.99
13496;DHT22;6820;49.374;8.452;2023-07-31T20:18:07;21.22;99.99
13496;DHT22;6820;49.374;8.452;2023-07-31T20:22:08;21.26;99.99
13496;DHT22;6820;49.374;8.452;2023-07-31T20:26:10;21.21;99.99
13496;DHT22;6820;49.374;8.452;2023-07-31T20:30:12;21.19;99.99
13496;DHT22;6820;49.374;8.452;2023-07-31T20:34:14;21.15;99.99
13496;DHT22;6820;49.374;8.452;2023-07-31T20:38:15;21.13;99.99
13496;DHT22;6820;49.374;8.452;2023-07-31T20:42:17;21.13;99.99
13496;DHT22;6820;49.374;8.452;2023-07-31T20:46:21;21.12;99.99
13496;DHT22;6820;49.374;8.452;2023-07-31T20:50:23;21.06;99.99
13496;DHT22;6820;49.374;8.452;2023-07-31T20:54:25;20.98;99.99
13496;DHT22;6820;49.374;8.452;2023-07-31T20:58:26;20.90;99.99
13496;DHT22;6820;49.374;8.452;2023-07-31T21:02:28;20.83;99.99
13496;DHT22;6820;49.374;8.452;2023-07-31T21:06:30;20.78;99.99
13496;DHT22;6820;49.374;8.452;2023-07-31T21:10:31;20.75;99.99
13496;DHT22;6820;49.374;8.452;2023-07-31T21:14:41;20.76;99.99
13496;DHT22;6820;49.374;8.452;2023-07-31T21:18:43;20.76;99.99
13496;DHT22;6820;49.374;8.452;2023-07-31T21:22:45;20.76;99.99
13496;DHT22;6820;49.374;8.452;2023-07-31T21:26:47;20.76;99.99
13496;DHT22;6820;49.374;8.452;2023-07-31T21:30:49;20.75;99.99
13496;DHT22;6820;49.374;8.452;2023-07-31T21:34:50;20.75;99.99
13496;DHT22;6820;49.374;8.452;2023-07-31T21:38:52;20.72;99.99
13496;DHT22;6820;49.374;8.452;2023-07-31T21:42:54;20.68;99.99
13496;DHT22;6820;49.374;8.452;2023-07-31T21:46:55;20.69;99.99
13496;DHT22;6820;49.374;8.452;2023-07-31T21:50:57;20.66;99.99
13496;DHT22;6820;49.374;8.452;2023-07-31T21:54:59;20.60;99.99
13496;DHT22;6820;49.374;8.452;2023-07-31T21:59:02;20.51;99.99
13496;DHT22;6820;49.374;8.452;2023-07-31T22:03:03;20.44;99.99
13496;DHT22;6820;49.374;8.452;2023-07-31T22:07:05;20.38;99.99
13496;DHT22;6820;49.374;8.452;2023-07-31T22:11:07;20.38;99.99
13496;DHT22;6820;49.374;8.452;2023-07-31T22:15:08;20.41;99.99
13496;DHT22;6820;49.374;8.452;2023-07-31T22:19:10;20.41;99.99
13496;DHT22;6820;49.374;8.452;2023-07-31T22:23:12;20.41;99.99
13496;DHT22;6820;49.374;8.452;2023-07-31T22:27:16;20.44;99.99
13496;DHT22;6820;49.374;8.452;2023-07-31T22:31:18;20.44;99.99
13496;DHT22;6820;49.374;8.452;2023-07-31T22:35:20;20.46;99.99
13496;DHT22;6820;49.374;8.452;2023-07-31T22:39:22;20.46;99.99
13496;DHT22;6820;49.374;8.452;2023-07-31T22:43:23;20.41;99.99
13496;DHT22;6820;49.374;8.452;2023-07-31T22:47:25;20.42;99.99
13496;DHT22;6820;49.374;8.452;2023-07-31T22:51:26;20.41;99.99
13496;DHT22;6820;49.374;8.452;2023-07-31T22:55:29;20.42;99.99
13496;DHT22;6820;49.374;8.452;2023-07-31T22:59:31;20.41;99.99
13496;DHT22;6820;49.374;8.452;2023-07-31T23:03:33;20.41;99.99
13496;DHT22;6820;49.374;8.452;2023-07-31T23:07:35;20.40;99.99
13496;DHT22;6820;49.374;8.452;2023-07-31T23:11:36;20.35;99.99
13496;DHT22;6820;49.374;8.452;2023-07-31T23:15:38;20.35;99.99
13496;DHT22;6820;49.374;8.452;2023-07-31T23:19:40;20.35;99.99
13496;DHT22;6820;49.374;8.452;2023-07-31T23:23:41;20.34;99.99
13496;DHT22;6820;49.374;8.452;2023-07-31T23:27:43;20.26;99.99
13496;DHT22;6820;49.374;8.452;2023-07-31T23:31:45;20.25;99.99
13496;DHT22;6820;49.374;8.452;2023-07-31T23:35:47;20.15;99.99
13496;DHT22;6820;49.374;8.452;2023-07-31T23:39:49;20.07;99.99
13496;DHT22;6820;49.374;8.452;2023-07-31T23:43:50;19.95;99.99
13496;DHT22;6820;49.374;8.452;2023-07-31T23:47:52;19.94;99.99
13496;DHT22;6820;49.374;8.452;2023-07-31T23:51:56;19.79;99.99
13496;DHT22;6820;49.374;8.452;2023-07-31T23:55:58;19.83;99.99
